Snow/Ice From: 16-12-2017 16:00 Until: 17-12-2017 16:00 warning for: Snow/Ice Level: Yellow info button

Although rather usual in this region, locally or potentially dangerous phenomena are expected. (such as local winds, summer thunderstorms, rising streams or high waves) Be aware and pay attention to the latest weather updates, especially if you carry out activities exposed to weather or close to a stream or shoreline. 


Meteo18 Weather Cam more information Meteo18 Weather Cam


Thunder radar more information blitzortung!


warning for Snow/Ice more information rain snow radar


Visit our other weather sites:

Template documentation
and downloads

And another site



Weather Underground History page Text

Daily Summary for September 21, 2017 Units:  English    Metric   Both
« Previous Day
Next Day »
Daily Weekly Monthly Yearly Custom
  High: Low: Average:
Temperature: 71.4 °F 44.1 °F 56.1 °F
Dew Point: 51.8 °F 42.8 °F 47.3 °F
Humidity: 96 % 39 % 76 %
Wind Speed: 6 mph 0 mph 0.6 mph
Wind Gust: 10 mph - -
Wind:- - SSE
Pressure: 30.2 in 30.1 in -
Precipitation: 0.01 in    
Historical Graphs
 
 
Tabular Data for September 21, 2017
Time Temperature Dew Point Pressure Wind Wind Speed Wind Gust Humidity Rainfall Rate (Hourly)
00:02 47.5 °F 45.3 °F 30.2 in Calm     92 % 0 in
00:12 47.1 °F 45.1 °F 30.2 in Calm     93 % 0 in
00:17 47.1 °F 45.1 °F 30.2 in Calm     93 % 0 in
00:22 46.9 °F 45 °F 30.2 in Calm     93 % 0 in
00:27 46.9 °F 45 °F 30.2 in Calm     93 % 0 in
00:32 46.9 °F 45 °F 30.2 in Calm     93 % 0 in
00:37 47.1 °F 45.1 °F 30.2 in Calm     93 % 0 in
00:42 46.9 °F 44.8 °F 30.2 in Calm     92 % 0 in
00:52 46.8 °F 44.8 °F 30.2 in Calm     93 % 0 in
00:57 46.8 °F 44.8 °F 30.2 in Calm     93 % 0 in
01:02 46.8 °F 44.8 °F 30.2 in Calm     93 % 0 in
01:12 46.8 °F 44.8 °F 30.2 in Calm     93 % 0 in
01:17 46.8 °F 44.8 °F 30.2 in Calm     93 % 0 in
01:22 46.8 °F 44.8 °F 30.2 in Calm     93 % 0 in
01:32 46.6 °F 44.6 °F 30.2 in Calm     93 % 0 in
01:37 46.6 °F 44.6 °F 30.2 in Calm     93 % 0 in
01:42 46.2 °F 44.2 °F 30.2 in Calm     93 % 0 in
01:47 46.2 °F 44.2 °F 30.2 in Calm     93 % 0 in
01:52 46.2 °F 44.2 °F 30.2 in Calm     93 % 0 in
01:57 46.2 °F 44.2 °F 30.2 in Calm     93 % 0 in
02:02 46.2 °F 44.6 °F 30.2 in Calm     94 % 0 in
02:07 46.6 °F 45 °F 30.2 in Calm     94 % 0 in
02:12 46.4 °F 44.4 °F 30.2 in Calm     93 % 0 in
02:17 46 °F 44.1 °F 30.2 in Calm     93 % 0 in
02:22 45.9 °F 43.9 °F 30.2 in Calm     93 % 0 in
02:32 45.9 °F 44.2 °F 30.2 in Calm     94 % 0 in
02:42 45.5 °F 43.5 °F 30.2 in Calm     93 % 0 in
02:47 45.1 °F 43.5 °F 30.2 in Calm     94 % 0 in
02:52 45.1 °F 43.5 °F 30.2 in Calm     94 % 0 in
03:02 45.1 °F 43.5 °F 30.2 in Calm     94 % 0 in
03:12 45.5 °F 44.2 °F 30.2 in Calm     95 % 0 in
03:22 45.7 °F 44.4 °F 30.2 in Calm     95 % 0 in
03:32 45.7 °F 44.4 °F 30.2 in Calm     95 % 0 in
03:42 46 °F 44.6 °F 30.2 in Calm     95 % 0 in
03:52 45.1 °F 43.5 °F 30.2 in Calm     94 % 0 in
03:57 45 °F 43.7 °F 30.2 in Calm     95 % 0 in
04:02 45 °F 43.7 °F 30.2 in Calm     95 % 0 in
04:12 45.1 °F 43.9 °F 30.1 in Calm     95 % 0 in
04:17 45.3 °F 44.1 °F 30.1 in Calm     95 % 0 in
04:22 45.1 °F 43.9 °F 30.1 in Calm     95 % 0 in
04:27 45 °F 43.7 °F 30.1 in Calm     95 % 0 in
04:32 45 °F 43.7 °F 30.1 in Calm     95 % 0 in
04:42 44.6 °F 43.3 °F 30.1 in Calm     95 % 0 in
04:52 44.6 °F 43.3 °F 30.1 in Calm     95 % 0 in
05:02 45 °F 43.9 °F 30.1 in Calm     96 % 0 in
05:12 44.8 °F 43.5 °F 30.1 in Calm     95 % 0 in
05:22 44.6 °F 43.3 °F 30.1 in Calm     95 % 0 in
05:32 44.2 °F 43 °F 30.1 in Calm     95 % 0 in
05:42 44.2 °F 43 °F 30.1 in Calm     95 % 0 in
05:52 44.8 °F 43.7 °F 30.1 in Calm     96 % 0 in
05:57 45 °F 43.9 °F 30.1 in Calm     96 % 0 in
06:02 44.8 °F 43.5 °F 30.1 in Calm     95 % 0 in
06:12 44.8 °F 43.7 °F 30.1 in Calm     96 % 0.01 in
06:17 44.8 °F 43.7 °F 30.1 in Calm     96 % 0.01 in
06:22 44.8 °F 43.5 °F 30.1 in Calm     95 % 0.01 in
06:32 44.8 °F 43.5 °F 30.1 in Calm     95 % 0.01 in
06:42 44.8 °F 43.7 °F 30.1 in Calm     96 % 0.01 in
06:52 44.4 °F 43.2 °F 30.1 in Calm     95 % 0.01 in
06:57 44.2 °F 43 °F 30.1 in Calm     95 % 0.01 in
07:02 44.2 °F 43 °F 30.1 in Calm     95 % 0.01 in
07:12 44.2 °F 43 °F 30.1 in Calm     95 % 0 in
07:17 44.2 °F 43.2 °F 30.1 in Calm     96 % 0 in
07:22 44.2 °F 43 °F 30.1 in Calm     95 % 0 in
07:27 44.4 °F 43.3 °F 30.1 in Calm     96 % 0 in
07:32 44.2 °F 43 °F 30.1 in Calm     95 % 0 in
07:42 44.1 °F 42.8 °F 30.1 in Calm     95 % 0 in
07:52 44.1 °F 42.8 °F 30.1 in Calm     95 % 0 in
08:02 44.4 °F 43.2 °F 30.1 in Calm     95 % 0 in
08:12 44.4 °F 43.2 °F 30.1 in Calm     95 % 0 in
08:17 44.4 °F 43.2 °F 30.1 in Calm     95 % 0 in
08:22 45 °F 43.7 °F 30.1 in Calm     95 % 0 in
08:32 45.1 °F 43.9 °F 30.1 in Calm     95 % 0 in
08:42 46 °F 44.6 °F 30.1 in Calm     95 % 0 in
08:52 47.1 °F 45.7 °F 30.1 in Calm     95 % 0 in
08:57 47.7 °F 46.2 °F 30.1 in Calm     95 % 0 in
09:02 48 °F 46.6 °F 30.1 in Calm     95 % 0 in
09:12 49.1 °F 47.5 °F 30.1 in Calm     94 % 0 in
09:17 49.3 °F 47.3 °F 30.1 in Calm     93 % 0 in
09:22 49.6 °F 47.1 °F 30.1 in Calm     91 % 0 in
09:32 50.5 °F 47.5 °F 30.1 in Calm     89 % 0 in
09:42 51.4 °F 48 °F 30.1 in SE 2 mph   88 % 0 in
09:47 51.8 °F 48 °F 30.1 in Calm   4 mph 87 % 0 in
09:52 52.3 °F 48.6 °F 30.1 in SE 1 mph 4 mph 87 % 0 in
10:02 52.9 °F 48.6 °F 30.1 in Calm   4 mph 85 % 0 in
10:12 53.8 °F 49.1 °F 30.1 in Calm   5 mph 84 % 0 in
10:17 54.1 °F 48.7 °F 30.1 in Calm   4 mph 82 % 0 in
10:22 54.1 °F 48.4 °F 30.1 in Calm   4 mph 81 % 0 in
10:32 54.9 °F 49.8 °F 30.1 in ESE 1 mph 6 mph 83 % 0 in
10:42 56.3 °F 50.5 °F 30.1 in ENE 1 mph 4 mph 81 % 0 in
10:52 56.8 °F 50.7 °F 30.1 in East 2 mph 5 mph 80 % 0 in
11:02 57.6 °F 50.4 °F 30.1 in SW 1 mph 4 mph 77 % 0 in
11:12 58.3 °F 51.1 °F 30.1 in ESE 1 mph 7 mph 77 % 0 in
11:22 59.2 °F 50.9 °F 30.1 in East 2 mph 6 mph 74 % 0 in
11:32 59.7 °F 51.1 °F 30.1 in South 1 mph 6 mph 73 % 0 in
11:37 60.1 °F 51.4 °F 30.1 in ESE 1 mph 5 mph 73 % 0 in
11:42 60.4 °F 51.8 °F 30.1 in ESE 1 mph 5 mph 73 % 0 in
11:52 61.5 °F 51.3 °F 30.1 in East 2 mph 6 mph 69 % 0 in
12:02 61.9 °F 50.7 °F 30.1 in SE 3 mph 6 mph 67 % 0 in
12:12 63 °F 50.5 °F 30.1 in SW 2 mph 8 mph 64 % 0 in
12:17 63.5 °F 51.1 °F 30.1 in SE 4 mph 7 mph 64 % 0 in
12:22 63.9 °F 50.5 °F 30.1 in East 1 mph 7 mph 62 % 0 in
12:32 64.2 °F 50 °F 30.1 in Calm   6 mph 60 % 0 in
12:42 64.8 °F 49.1 °F 30.1 in ESE 3 mph 7 mph 57 % 0 in
12:52 64.8 °F 49.1 °F 30.1 in ESE 2 mph 8 mph 57 % 0 in
12:57 64.9 °F 48.9 °F 30.1 in NE 2 mph 9 mph 56 % 0 in
13:02 64.8 °F 48.2 °F 30.1 in SE 3 mph 9 mph 55 % 0 in
13:12 64.6 °F 48.9 °F 30.1 in SE 1 mph 9 mph 57 % 0 in
13:17 65.3 °F 50.2 °F 30.1 in ENE 2 mph 8 mph 58 % 0 in
13:22 65.5 °F 49.3 °F 30.1 in Calm   8 mph 56 % 0 in
13:32 66.2 °F 50 °F 30.1 in South 1 mph 8 mph 56 % 0 in
13:42 66.6 °F 49.5 °F 30.1 in Calm   7 mph 54 % 0 in
13:52 66.7 °F 48.6 °F 30.1 in SSW 4 mph 7 mph 52 % 0 in
13:57 66.6 °F 49.5 °F 30.1 in SE 5 mph 10 mph 54 % 0 in
14:02 65.7 °F 48.6 °F 30.1 in ESE 1 mph 10 mph 54 % 0 in
14:12 65.7 °F 48 °F 30.1 in ESE 4 mph 8 mph 53 % 0 in
14:17 66 °F 50.4 °F 30.1 in SE 3 mph 7 mph 57 % 0 in
14:22 66.9 °F 50.2 °F 30.1 in SSW 1 mph 7 mph 55 % 0 in
14:32 67.3 °F 49.1 °F 30.1 in WSW 3 mph 6 mph 52 % 0 in
14:37 67.3 °F 49.6 °F 30.1 in East 1 mph 7 mph 53 % 0 in
14:42 67.5 °F 49.8 °F 30.1 in SSE 3 mph 7 mph 53 % 0 in
14:52 67.6 °F 48.9 °F 30.1 in Calm   7 mph 51 % 0 in
14:57 68.2 °F 50.4 °F 30.1 in ESE 1 mph 8 mph 53 % 0 in
15:02 68.4 °F 50.5 °F 30.1 in Calm   8 mph 53 % 0 in
15:12 68.4 °F 50 °F 30.1 in SE 4 mph 6 mph 52 % 0 in
15:17 68.4 °F 50 °F 30.1 in SE 2 mph 6 mph 52 % 0 in
15:22 68.9 °F 50.5 °F 30.1 in SSW 6 mph 6 mph 52 % 0 in
15:27 68.7 °F 47.7 °F 30.1 in SSE 2 mph 8 mph 47 % 0 in
15:32 68.5 °F 47.5 °F 30.1 in SSW 2 mph 8 mph 47 % 0 in
15:42 69.1 °F 48 °F 30.1 in WSW 2 mph 6 mph 47 % 0 in
15:52 69.4 °F 47.8 °F 30.1 in Calm   6 mph 46 % 0 in
16:02 69.3 °F 46.9 °F 30.1 in South 1 mph 5 mph 45 % 0 in
16:12 70.2 °F 48.4 °F 30.1 in ESE 1 mph 7 mph 46 % 0 in
16:17 69.8 °F 48 °F 30.1 in Calm   5 mph 46 % 0 in
16:22 69.4 °F 48.9 °F 30.1 in Calm   5 mph 48 % 0 in
16:32 69.4 °F 49.5 °F 30.1 in SSE 2 mph 5 mph 49 % 0 in
16:42 69.8 °F 48.7 °F 30.1 in SW 3 mph 6 mph 47 % 0 in
16:47 70 °F 49.5 °F 30.1 in Calm   5 mph 48 % 0 in
16:52 70.3 °F 49.6 °F 30.1 in SW 3 mph 5 mph 48 % 0 in
16:57 70.3 °F 49.1 °F 30.1 in Calm   7 mph 47 % 0 in
17:02 70.5 °F 48.7 °F 30.1 in South 2 mph 7 mph 46 % 0 in
17:12 70.5 °F 48.7 °F 30.1 in Calm   6 mph 46 % 0 in
17:17 70.5 °F 48.2 °F 30.1 in South 2 mph 3 mph 45 % 0 in
17:22 71.1 °F 48 °F 30.1 in SE 1 mph 3 mph 44 % 0 in
17:32 71.1 °F 48 °F 30.1 in Calm   4 mph 44 % 0 in
17:42 71.4 °F 47.8 °F 30.1 in South 2 mph 3 mph 43 % 0 in
17:52 71.1 °F 47.5 °F 30.1 in ESE 1 mph 7 mph 43 % 0 in
17:57 71.1 °F 49.3 °F 30.1 in Calm   7 mph 46 % 0 in
18:02 71.4 °F 49.6 °F 30.1 in Calm   7 mph 46 % 0 in
18:07 71.2 °F 46.4 °F 30.1 in SSW 1 mph 4 mph 41 % 0 in
18:12 71.4 °F 48.4 °F 30.1 in Calm   4 mph 44 % 0 in
18:17 71.1 °F 44.8 °F 30.1 in SSW 3 mph 3 mph 39 % 0 in
18:22 70.5 °F 45.7 °F 30.1 in SW 1 mph 4 mph 41 % 0 in
18:32 70.2 °F 45.3 °F 30.1 in WSW 3 mph 6 mph 41 % 0 in
18:37 70 °F 45.9 °F 30.1 in SW 3 mph 6 mph 42 % 0 in
18:42 70 °F 45.9 °F 30.1 in SW 1 mph 5 mph 42 % 0 in
18:47 70 °F 46.4 °F 30.1 in Calm   4 mph 43 % 0 in
18:52 70 °F 47.1 °F 30.1 in Calm   4 mph 44 % 0 in
18:57 70.2 °F 47.8 °F 30.1 in West 1 mph 3 mph 45 % 0 in
19:02 70.2 °F 47.8 °F 30.1 in Calm   3 mph 45 % 0 in
19:12 69.4 °F 50 °F 30.1 in Calm   2 mph 50 % 0 in
19:17 68.2 °F 51.4 °F 30.1 in Calm   1 mph 55 % 0 in
19:22 66.9 °F 50.7 °F 30.1 in Calm   1 mph 56 % 0 in
19:32 64.9 °F 51.1 °F 30.1 in Calm   1 mph 61 % 0 in
19:42 63.9 °F 51.1 °F 30.1 in Calm     63 % 0 in
19:52 63.3 °F 50 °F 30.1 in Calm     62 % 0 in
19:57 63 °F 49.8 °F 30.1 in Calm     62 % 0 in
20:02 62.4 °F 49.6 °F 30.1 in Calm     63 % 0 in
20:12 61.3 °F 49.5 °F 30.1 in Calm     65 % 0 in
20:17 61.2 °F 50.5 °F 30.1 in Calm     68 % 0 in
20:22 60.8 °F 49.5 °F 30.1 in Calm     66 % 0 in
20:32 60.4 °F 51.1 °F 30.1 in Calm     71 % 0 in
20:42 59.5 °F 51.3 °F 30.1 in Calm     74 % 0 in
20:47 59.4 °F 51.4 °F 30.1 in Calm     75 % 0 in
20:57 59.2 °F 51.6 °F 30.1 in Calm     76 % 0 in
21:07 57.9 °F 51.1 °F 30.1 in Calm     78 % 0 in
21:12 57.2 °F 51.4 °F 30.1 in WNW 2 mph   81 % 0 in
21:17 56.7 °F 51.3 °F 30.1 in Calm   2 mph 82 % 0 in
21:27 56.3 °F 51.3 °F 30.1 in Calm   2 mph 83 % 0 in
21:32 56.1 °F 51.1 °F 30.1 in WNW 1 mph 2 mph 83 % 0 in
21:37 55.8 °F 50.7 °F 30.1 in Calm   1 mph 83 % 0 in
21:42 55.8 °F 50.7 °F 30.1 in Calm   1 mph 83 % 0 in
21:47 55.6 °F 50.5 °F 30.1 in Calm   1 mph 83 % 0 in
21:57 55 °F 50.4 °F 30.1 in Calm   1 mph 84 % 0 in
22:02 54.9 °F 50.4 °F 30.1 in Calm   1 mph 85 % 0 in
22:12 54.9 °F 50.4 °F 30.1 in Calm   1 mph 85 % 0 in
22:22 54.7 °F 50.2 °F 30.1 in Calm   1 mph 85 % 0 in
22:32 54.3 °F 49.8 °F 30.1 in Calm   1 mph 85 % 0 in
22:37 54 °F 49.8 °F 30.1 in Calm   1 mph 86 % 0 in
22:47 53.8 °F 50.4 °F 30.1 in Calm   1 mph 88 % 0 in
22:52 54 °F 50.2 °F 30.1 in Calm   1 mph 87 % 0 in
22:57 53.8 °F 50 °F 30.1 in Calm   1 mph 87 % 0 in
23:02 53.4 °F 49.6 °F 30.1 in Calm   1 mph 87 % 0 in
23:12 52.7 °F 49.3 °F 30.1 in Calm     88 % 0 in
23:17 52.5 °F 49.5 °F 30.1 in Calm     89 % 0 in
23:22 52.5 °F 49.5 °F 30.1 in Calm     89 % 0 in
23:32 52.5 °F 49.5 °F 30.1 in Calm     89 % 0 in
23:42 52.2 °F 49.1 °F 30.1 in Calm     89 % 0 in
23:47 52.2 °F 49.3 °F 30.1 in Calm     90 % 0 in
23:52 52.2 °F 49.3 °F 30.1 in Calm     90 % 0 in
Meteo18
Compliments of Weather Underground - 4 mb

Script developed by  Jim McMurry - jmcmurry@mwt.net Adapted for the template by  Wim van der Kuil - Leuven-Template.eu

You find our weather info also at:

European Weather Network

Weather Underground

Equipment we use:

Weather-station
Davis Vue

Weather-program
Meteohub

Weather-server
Raspberry PI 2 B+

Provider
1 and 1

Davis Vue

Meteohub

Raspberry PI 2 B+

1 and 1